sensor_id;sensor_type;location;lat;lon;timestamp;temperature;humidity
423;DHT22;198;48.752;9.180;2022-08-21T00:02:22;18.30;77.70
423;DHT22;198;48.752;9.180;2022-08-21T00:04:49;18.30;78.70
423;DHT22;198;48.752;9.180;2022-08-21T00:07:17;18.20;80.30
423;DHT22;198;48.752;9.180;2022-08-21T00:09:43;18.20;81.00
423;DHT22;198;48.752;9.180;2022-08-21T00:12:09;18.20;82.60
423;DHT22;198;48.752;9.180;2022-08-21T00:14:35;18.20;84.30
423;DHT22;198;48.752;9.180;2022-08-21T00:17:01;18.10;85.50
423;DHT22;198;48.752;9.180;2022-08-21T00:19:27;18.10;84.80
423;DHT22;198;48.752;9.180;2022-08-21T00:21:54;18.00;86.00
423;DHT22;198;48.752;9.180;2022-08-21T00:24:21;18.00;87.20
423;DHT22;198;48.752;9.180;2022-08-21T00:26:46;17.90;87.90
423;DHT22;198;48.752;9.180;2022-08-21T00:29:12;17.90;88.70
423;DHT22;198;48.752;9.180;2022-08-21T00:31:39;17.90;88.50
423;DHT22;198;48.752;9.180;2022-08-21T00:34:04;17.90;90.20
423;DHT22;198;48.752;9.180;2022-08-21T00:36:30;17.80;90.10
423;DHT22;198;48.752;9.180;2022-08-21T00:38:56;17.80;90.30
423;DHT22;198;48.752;9.180;2022-08-21T00:41:22;17.80;90.30
423;DHT22;198;48.752;9.180;2022-08-21T00:43:49;17.70;91.20
423;DHT22;198;48.752;9.180;2022-08-21T00:46:15;17.70;91.50
423;DHT22;198;48.752;9.180;2022-08-21T00:48:41;17.70;90.80
423;DHT22;198;48.752;9.180;2022-08-21T00:51:11;17.60;91.10
423;DHT22;198;48.752;9.180;2022-08-21T00:53:40;17.60;91.50
423;DHT22;198;48.752;9.180;2022-08-21T00:56:07;17.60;91.10
423;DHT22;198;48.752;9.180;2022-08-21T00:58:34;17.60;92.70
423;DHT22;198;48.752;9.180;2022-08-21T01:01:02;17.60;93.30
423;DHT22;198;48.752;9.180;2022-08-21T01:03:28;17.50;93.50
423;DHT22;198;48.752;9.180;2022-08-21T01:05:54;17.50;93.90
423;DHT22;198;48.752;9.180;2022-08-21T01:08:20;17.50;94.40
423;DHT22;198;48.752;9.180;2022-08-21T01:10:47;17.40;94.30
423;DHT22;198;48.752;9.180;2022-08-21T01:13:16;17.30;94.70
423;DHT22;198;48.752;9.180;2022-08-21T01:15:46;17.30;95.10
423;DHT22;198;48.752;9.180;2022-08-21T01:18:15;17.30;95.90
423;DHT22;198;48.752;9.180;2022-08-21T01:21:00;17.20;96.20
423;DHT22;198;48.752;9.180;2022-08-21T01:23:25;17.20;96.90
423;DHT22;198;48.752;9.180;2022-08-21T01:25:51;17.10;96.10
423;DHT22;198;48.752;9.180;2022-08-21T01:28:17;17.10;95.40
423;DHT22;198;48.752;9.180;2022-08-21T01:30:44;17.10;94.90
423;DHT22;198;48.752;9.180;2022-08-21T01:33:10;17.10;96.00
423;DHT22;198;48.752;9.180;2022-08-21T01:35:35;17.00;95.80
423;DHT22;198;48.752;9.180;2022-08-21T01:38:01;16.90;96.00
423;DHT22;198;48.752;9.180;2022-08-21T01:40:27;16.90;95.70
423;DHT22;198;48.752;9.180;2022-08-21T01:42:53;17.00;95.30
423;DHT22;198;48.752;9.180;2022-08-21T01:45:18;17.00;96.60
423;DHT22;198;48.752;9.180;2022-08-21T01:47:44;17.00;97.60
423;DHT22;198;48.752;9.180;2022-08-21T01:50:12;17.00;98.00
423;DHT22;198;48.752;9.180;2022-08-21T01:52:38;17.00;98.20
423;DHT22;198;48.752;9.180;2022-08-21T01:55:05;17.00;98.40
423;DHT22;198;48.752;9.180;2022-08-21T01:57:31;16.90;99.20
423;DHT22;198;48.752;9.180;2022-08-21T01:59:58;17.00;99.90
423;DHT22;198;48.752;9.180;2022-08-21T02:02:24;16.90;99.90
423;DHT22;198;48.752;9.180;2022-08-21T02:04:50;16.90;99.90
423;DHT22;198;48.752;9.180;2022-08-21T02:07:15;16.90;99.90
423;DHT22;198;48.752;9.180;2022-08-21T02:09:41;16.90;99.90
423;DHT22;198;48.752;9.180;2022-08-21T02:12:08;16.80;99.90
423;DHT22;198;48.752;9.180;2022-08-21T02:14:34;16.80;99.90
423;DHT22;198;48.752;9.180;2022-08-21T02:17:00;16.80;99.90
423;DHT22;198;48.752;9.180;2022-08-21T02:19:26;16.80;99.90
423;DHT22;198;48.752;9.180;2022-08-21T02:21:51;16.80;99.90
423;DHT22;198;48.752;9.180;2022-08-21T02:24:17;16.80;99.90
423;DHT22;198;48.752;9.180;2022-08-21T02:26:42;16.70;99.90
423;DHT22;198;48.752;9.180;2022-08-21T02:29:07;16.60;99.90
423;DHT22;198;48.752;9.180;2022-08-21T02:31:33;16.60;99.90
423;DHT22;198;48.752;9.180;2022-08-21T02:33:59;16.60;99.90
423;DHT22;198;48.752;9.180;2022-08-21T02:36:25;16.60;99.90
423;DHT22;198;48.752;9.180;2022-08-21T02:38:50;16.50;99.90
423;DHT22;198;48.752;9.180;2022-08-21T02:41:19;16.60;99.90
423;DHT22;198;48.752;9.180;2022-08-21T02:43:45;16.60;99.90
423;DHT22;198;48.752;9.180;2022-08-21T02:46:13;16.50;99.90
423;DHT22;198;48.752;9.180;2022-08-21T02:48:40;16.50;99.90
423;DHT22;198;48.752;9.180;2022-08-21T02:51:12;16.50;99.90
423;DHT22;198;48.752;9.180;2022-08-21T02:53:41;16.50;99.90
423;DHT22;198;48.752;9.180;2022-08-21T02:56:09;16.50;99.90
423;DHT22;198;48.752;9.180;2022-08-21T02:58:38;16.40;99.90
423;DHT22;198;48.752;9.180;2022-08-21T03:01:05;16.40;99.90
423;DHT22;198;48.752;9.180;2022-08-21T03:03:32;16.40;99.90
423;DHT22;198;48.752;9.180;2022-08-21T03:05:59;16.40;99.90
423;DHT22;198;48.752;9.180;2022-08-21T03:08:25;16.40;99.90
423;DHT22;198;48.752;9.180;2022-08-21T03:10:51;16.40;99.90
423;DHT22;198;48.752;9.180;2022-08-21T03:13:18;16.40;99.90
423;DHT22;198;48.752;9.180;2022-08-21T03:15:45;16.40;99.90
423;DHT22;198;48.752;9.180;2022-08-21T03:18:12;16.40;99.90
423;DHT22;198;48.752;9.180;2022-08-21T03:20:39;16.40;99.90
423;DHT22;198;48.752;9.180;2022-08-21T03:23:06;16.40;99.90
423;DHT22;198;48.752;9.180;2022-08-21T03:25:32;16.40;99.90
423;DHT22;198;48.752;9.180;2022-08-21T03:27:59;16.30;99.90
423;DHT22;198;48.752;9.180;2022-08-21T03:30:25;16.30;99.90
423;DHT22;198;48.752;9.180;2022-08-21T03:32:51;16.20;99.90
423;DHT22;198;48.752;9.180;2022-08-21T03:35:17;16.20;99.90
423;DHT22;198;48.752;9.180;2022-08-21T03:37:44;16.20;99.90
423;DHT22;198;48.752;9.180;2022-08-21T03:40:10;16.10;99.90
423;DHT22;198;48.752;9.180;2022-08-21T03:42:37;16.10;99.90
423;DHT22;198;48.752;9.180;2022-08-21T03:45:03;16.00;99.90
423;DHT22;198;48.752;9.180;2022-08-21T03:47:29;16.00;99.90
423;DHT22;198;48.752;9.180;2022-08-21T03:49:55;16.00;99.90
423;DHT22;198;48.752;9.180;2022-08-21T03:52:21;16.00;99.90
423;DHT22;198;48.752;9.180;2022-08-21T03:54:46;15.90;99.90
423;DHT22;198;48.752;9.180;2022-08-21T03:57:12;15.90;99.90
423;DHT22;198;48.752;9.180;2022-08-21T03:59:38;15.80;99.90
423;DHT22;198;48.752;9.180;2022-08-21T04:02:06;15.80;99.90
423;DHT22;198;48.752;9.180;2022-08-21T04:04:32;15.70;99.90
423;DHT22;198;48.752;9.180;2022-08-21T04:06:58;15.70;99.90
423;DHT22;198;48.752;9.180;2022-08-21T04:09:25;15.60;99.90
423;DHT22;198;48.752;9.180;2022-08-21T04:11:51;15.60;99.90
423;DHT22;198;48.752;9.180;2022-08-21T04:14:17;15.60;99.90
423;DHT22;198;48.752;9.180;2022-08-21T04:16:43;15.60;99.90
423;DHT22;198;48.752;9.180;2022-08-21T04:19:09;15.50;99.90
423;DHT22;198;48.752;9.180;2022-08-21T04:21:38;15.60;99.90
423;DHT22;198;48.752;9.180;2022-08-21T04:24:04;15.60;99.90
423;DHT22;198;48.752;9.180;2022-08-21T04:26:30;15.60;99.90
423;DHT22;198;48.752;9.180;2022-08-21T04:28:57;15.50;99.90
423;DHT22;198;48.752;9.180;2022-08-21T04:31:23;15.50;99.90
423;DHT22;198;48.752;9.180;2022-08-21T04:33:48;15.50;99.90
423;DHT22;198;48.752;9.180;2022-08-21T04:36:14;15.50;99.90
423;DHT22;198;48.752;9.180;2022-08-21T04:38:39;15.50;99.90
423;DHT22;198;48.752;9.180;2022-08-21T04:41:05;15.50;99.90
423;DHT22;198;48.752;9.180;2022-08-21T04:43:31;15.50;99.90
423;DHT22;198;48.752;9.180;2022-08-21T04:45:57;15.50;99.90
423;DHT22;198;48.752;9.180;2022-08-21T04:48:23;15.50;99.90
423;DHT22;198;48.752;9.180;2022-08-21T04:53:40;15.60;99.90
423;DHT22;198;48.752;9.180;2022-08-21T04:56:31;15.60;99.90
423;DHT22;198;48.752;9.180;2022-08-21T04:59:00;15.60;99.90
423;DHT22;198;48.752;9.180;2022-08-21T05:01:29;15.60;99.90
423;DHT22;198;48.752;9.180;2022-08-21T05:03:58;15.70;99.90
423;DHT22;198;48.752;9.180;2022-08-21T05:06:24;15.70;99.90
423;DHT22;198;48.752;9.180;2022-08-21T05:08:53;15.70;99.90
423;DHT22;198;48.752;9.180;2022-08-21T05:11:20;15.80;99.90
423;DHT22;198;48.752;9.180;2022-08-21T05:13:47;15.80;99.90
423;DHT22;198;48.752;9.180;2022-08-21T05:16:13;15.80;99.90
423;DHT22;198;48.752;9.180;2022-08-21T05:18:39;15.90;99.90
423;DHT22;198;48.752;9.180;2022-08-21T05:21:04;15.90;99.90
423;DHT22;198;48.752;9.180;2022-08-21T05:23:30;16.00;99.90
423;DHT22;198;48.752;9.180;2022-08-21T05:25:55;16.00;99.90
423;DHT22;198;48.752;9.180;2022-08-21T05:28:21;16.10;99.90
423;DHT22;198;48.752;9.180;2022-08-21T05:30:46;16.20;99.90
423;DHT22;198;48.752;9.180;2022-08-21T05:33:12;16.20;99.90
423;DHT22;198;48.752;9.180;2022-08-21T05:35:38;16.30;99.90
423;DHT22;198;48.752;9.180;2022-08-21T05:38:04;16.40;99.90
423;DHT22;198;48.752;9.180;2022-08-21T05:40:30;16.50;99.90
423;DHT22;198;48.752;9.180;2022-08-21T05:42:56;16.50;99.90
423;DHT22;198;48.752;9.180;2022-08-21T05:45:24;16.60;99.90
423;DHT22;198;48.752;9.180;2022-08-21T05:47:50;16.70;99.90
423;DHT22;198;48.752;9.180;2022-08-21T05:50:15;16.70;99.90
423;DHT22;198;48.752;9.180;2022-08-21T05:52:40;16.80;99.90
423;DHT22;198;48.752;9.180;2022-08-21T05:55:06;16.90;99.90
423;DHT22;198;48.752;9.180;2022-08-21T05:57:32;16.90;99.90
423;DHT22;198;48.752;9.180;2022-08-21T05:59:57;17.00;99.90
423;DHT22;198;48.752;9.180;2022-08-21T06:02:23;17.10;99.90
423;DHT22;198;48.752;9.180;2022-08-21T06:04:48;17.10;99.90
423;DHT22;198;48.752;9.180;2022-08-21T06:07:14;17.20;99.90
423;DHT22;198;48.752;9.180;2022-08-21T06:09:40;17.30;99.90
423;DHT22;198;48.752;9.180;2022-08-21T06:12:10;17.40;99.90
423;DHT22;198;48.752;9.180;2022-08-21T06:14:38;17.40;99.90
423;DHT22;198;48.752;9.180;2022-08-21T06:17:06;17.50;99.90
423;DHT22;198;48.752;9.180;2022-08-21T06:19:32;17.50;99.90
423;DHT22;198;48.752;9.180;2022-08-21T06:21:58;17.60;99.90
423;DHT22;198;48.752;9.180;2022-08-21T06:24:23;17.70;99.90
423;DHT22;198;48.752;9.180;2022-08-21T06:26:49;17.80;99.90
423;DHT22;198;48.752;9.180;2022-08-21T06:29:14;17.80;99.90
423;DHT22;198;48.752;9.180;2022-08-21T06:31:43;17.90;99.90
423;DHT22;198;48.752;9.180;2022-08-21T06:34:09;18.00;99.90
423;DHT22;198;48.752;9.180;2022-08-21T06:36:34;18.10;99.90
423;DHT22;198;48.752;9.180;2022-08-21T06:39:00;18.20;99.90
423;DHT22;198;48.752;9.180;2022-08-21T06:41:26;18.20;99.90
423;DHT22;198;48.752;9.180;2022-08-21T06:43:52;18.40;99.90
423;DHT22;198;48.752;9.180;2022-08-21T06:46:17;18.40;99.90
423;DHT22;198;48.752;9.180;2022-08-21T06:48:43;18.50;99.90
423;DHT22;198;48.752;9.180;2022-08-21T06:51:09;18.70;99.90
423;DHT22;198;48.752;9.180;2022-08-21T06:53:34;18.70;99.90
423;DHT22;198;48.752;9.180;2022-08-21T06:56:00;18.90;99.90
423;DHT22;198;48.752;9.180;2022-08-21T06:58:25;19.00;99.90
423;DHT22;198;48.752;9.180;2022-08-21T07:00:51;19.10;99.90
423;DHT22;198;48.752;9.180;2022-08-21T07:03:28;19.10;98.50
423;DHT22;198;48.752;9.180;2022-08-21T07:05:55;19.20;98.70
423;DHT22;198;48.752;9.180;2022-08-21T07:08:22;19.40;98.50
423;DHT22;198;48.752;9.180;2022-08-21T07:10:48;19.40;97.80
423;DHT22;198;48.752;9.180;2022-08-21T07:13:15;19.50;96.60
423;DHT22;198;48.752;9.180;2022-08-21T07:15:41;19.50;96.50
423;DHT22;198;48.752;9.180;2022-08-21T07:18:06;19.60;96.70
423;DHT22;198;48.752;9.180;2022-08-21T07:20:32;19.70;96.20
423;DHT22;198;48.752;9.180;2022-08-21T07:23:01;19.90;96.60
423;DHT22;198;48.752;9.180;2022-08-21T07:25:28;20.00;94.70
423;DHT22;198;48.752;9.180;2022-08-21T07:27:54;20.00;94.00
423;DHT22;198;48.752;9.180;2022-08-21T07:30:20;20.00;93.30
423;DHT22;198;48.752;9.180;2022-08-21T07:32:46;20.10;94.00
423;DHT22;198;48.752;9.180;2022-08-21T07:35:14;20.20;93.10
423;DHT22;198;48.752;9.180;2022-08-21T07:37:40;20.20;92.20
423;DHT22;198;48.752;9.180;2022-08-21T07:40:06;20.30;92.40
423;DHT22;198;48.752;9.180;2022-08-21T07:42:32;20.40;93.00
423;DHT22;198;48.752;9.180;2022-08-21T07:44:57;20.50;92.70
423;DHT22;198;48.752;9.180;2022-08-21T07:47:23;20.60;92.60
423;DHT22;198;48.752;9.180;2022-08-21T07:49:48;20.70;92.30
423;DHT22;198;48.752;9.180;2022-08-21T07:52:14;20.80;92.30
423;DHT22;198;48.752;9.180;2022-08-21T07:54:39;20.90;91.60
423;DHT22;198;48.752;9.180;2022-08-21T07:57:05;21.00;90.90
423;DHT22;198;48.752;9.180;2022-08-21T07:59:30;21.00;90.40
423;DHT22;198;48.752;9.180;2022-08-21T08:01:56;21.10;90.70
423;DHT22;198;48.752;9.180;2022-08-21T08:04:22;21.20;90.10
423;DHT22;198;48.752;9.180;2022-08-21T08:06:47;21.30;89.20
423;DHT22;198;48.752;9.180;2022-08-21T08:09:13;21.50;89.50
423;DHT22;198;48.752;9.180;2022-08-21T08:11:41;21.50;86.10
423;DHT22;198;48.752;9.180;2022-08-21T08:14:09;21.60;85.80
423;DHT22;198;48.752;9.180;2022-08-21T08:16:35;21.70;85.50
423;DHT22;198;48.752;9.180;2022-08-21T08:19:00;21.80;84.80
423;DHT22;198;48.752;9.180;2022-08-21T08:21:26;21.80;82.90
423;DHT22;198;48.752;9.180;2022-08-21T08:23:52;22.00;80.70
423;DHT22;198;48.752;9.180;2022-08-21T08:26:18;22.10;80.10
423;DHT22;198;48.752;9.180;2022-08-21T08:28:44;22.20;79.20
423;DHT22;198;48.752;9.180;2022-08-21T08:31:11;22.40;78.50
423;DHT22;198;48.752;9.180;2022-08-21T08:33:37;22.50;75.20
423;DHT22;198;48.752;9.180;2022-08-21T08:36:03;22.70;73.90
423;DHT22;198;48.752;9.180;2022-08-21T08:38:28;22.80;73.50
423;DHT22;198;48.752;9.180;2022-08-21T08:43:34;23.10;73.10
423;DHT22;198;48.752;9.180;2022-08-21T08:46:04;23.20;73.80
423;DHT22;198;48.752;9.180;2022-08-21T08:51:24;23.50;71.10
423;DHT22;198;48.752;9.180;2022-08-21T08:54:05;23.60;71.50
423;DHT22;198;48.752;9.180;2022-08-21T08:56:33;23.80;70.70
423;DHT22;198;48.752;9.180;2022-08-21T08:59:07;23.90;69.30
423;DHT22;198;48.752;9.180;2022-08-21T09:01:34;24.10;66.20
423;DHT22;198;48.752;9.180;2022-08-21T09:04:00;24.30;62.40
423;DHT22;198;48.752;9.180;2022-08-21T09:06:42;24.40;62.30
423;DHT22;198;48.752;9.180;2022-08-21T09:09:38;24.60;59.60
423;DHT22;198;48.752;9.180;2022-08-21T09:17:44;25.50;57.20
423;DHT22;198;48.752;9.180;2022-08-21T09:23:50;25.90;56.80
423;DHT22;198;48.752;9.180;2022-08-21T09:26:21;26.00;55.60
423;DHT22;198;48.752;9.180;2022-08-21T09:28:54;25.80;55.10
423;DHT22;198;48.752;9.180;2022-08-21T09:31:29;25.70;55.20
423;DHT22;198;48.752;9.180;2022-08-21T09:34:10;25.50;55.50
423;DHT22;198;48.752;9.180;2022-08-21T09:36:43;25.20;55.90
423;DHT22;198;48.752;9.180;2022-08-21T09:39:10;25.00;56.10
423;DHT22;198;48.752;9.180;2022-08-21T09:41:37;24.70;56.30
423;DHT22;198;48.752;9.180;2022-08-21T09:44:04;24.60;57.80
423;DHT22;198;48.752;9.180;2022-08-21T09:46:30;24.60;58.30
423;DHT22;198;48.752;9.180;2022-08-21T09:48:58;24.60;58.90
423;DHT22;198;48.752;9.180;2022-08-21T09:51:28;24.70;59.70
423;DHT22;198;48.752;9.180;2022-08-21T09:59:38;26.80;54.80
423;DHT22;198;48.752;9.180;2022-08-21T10:04:58;30.30;48.70
423;DHT22;198;48.752;9.180;2022-08-21T10:07:27;30.10;47.10
423;DHT22;198;48.752;9.180;2022-08-21T10:10:06;29.40;47.50
423;DHT22;198;48.752;9.180;2022-08-21T10:20:42;34.70;40.60
423;DHT22;198;48.752;9.180;2022-08-21T10:23:22;37.80;37.20
423;DHT22;198;48.752;9.180;2022-08-21T10:34:36;46.20;24.80
423;DHT22;198;48.752;9.180;2022-08-21T10:45:08;48.70;21.20
423;DHT22;198;48.752;9.180;2022-08-21T10:47:53;47.40;22.20
423;DHT22;198;48.752;9.180;2022-08-21T10:58:09;52.90;19.90
423;DHT22;198;48.752;9.180;2022-08-21T11:00:46;54.20;19.70
423;DHT22;198;48.752;9.180;2022-08-21T11:05:53;54.80;18.40
423;DHT22;198;48.752;9.180;2022-08-21T11:08:28;55.00;18.80
423;DHT22;198;48.752;9.180;2022-08-21T11:13:40;56.20;18.60
423;DHT22;198;48.752;9.180;2022-08-21T11:16:31;56.30;18.50
423;DHT22;198;48.752;9.180;2022-08-21T11:19:07;56.00;18.20
423;DHT22;198;48.752;9.180;2022-08-21T11:21:43;55.90;17.90
423;DHT22;198;48.752;9.180;2022-08-21T11:27:23;57.30;17.70
423;DHT22;198;48.752;9.180;2022-08-21T11:29:54;57.90;17.50
423;DHT22;198;48.752;9.180;2022-08-21T11:32:36;57.80;17.60
423;DHT22;198;48.752;9.180;2022-08-21T11:35:30;57.80;17.20
423;DHT22;198;48.752;9.180;2022-08-21T11:40:47;56.40;17.50
423;DHT22;198;48.752;9.180;2022-08-21T11:43:27;57.30;17.50
423;DHT22;198;48.752;9.180;2022-08-21T11:48:55;56.50;17.70
423;DHT22;198;48.752;9.180;2022-08-21T11:51:43;58.10;17.20
423;DHT22;198;48.752;9.180;2022-08-21T12:00:13;57.80;17.00
423;DHT22;198;48.752;9.180;2022-08-21T12:02:45;57.90;16.70
423;DHT22;198;48.752;9.180;2022-08-21T12:08:45;56.60;16.40
423;DHT22;198;48.752;9.180;2022-08-21T12:11:09;56.00;16.90
423;DHT22;198;48.752;9.180;2022-08-21T12:14:11;52.90;17.20
423;DHT22;198;48.752;9.180;2022-08-21T12:16:39;50.60;18.20
423;DHT22;198;48.752;9.180;2022-08-21T12:19:28;49.90;18.70
423;DHT22;198;48.752;9.180;2022-08-21T12:24:44;44.10;20.90
423;DHT22;198;48.752;9.180;2022-08-21T12:29:53;41.40;23.40
423;DHT22;198;48.752;9.180;2022-08-21T12:32:44;41.10;24.00
423;DHT22;198;48.752;9.180;2022-08-21T12:35:18;41.50;22.80
423;DHT22;198;48.752;9.180;2022-08-21T12:37:56;41.00;22.60
423;DHT22;198;48.752;9.180;2022-08-21T12:40:41;39.60;23.40
423;DHT22;198;48.752;9.180;2022-08-21T12:43:29;39.60;24.40
423;DHT22;198;48.752;9.180;2022-08-21T12:45:56;42.30;23.40
423;DHT22;198;48.752;9.180;2022-08-21T12:48:29;44.70;22.50
423;DHT22;198;48.752;9.180;2022-08-21T12:51:23;47.00;20.90
423;DHT22;198;48.752;9.180;2022-08-21T12:53:50;47.80;19.60
423;DHT22;198;48.752;9.180;2022-08-21T12:56:19;46.00;20.00
423;DHT22;198;48.752;9.180;2022-08-21T12:58:56;45.00;21.30
423;DHT22;198;48.752;9.180;2022-08-21T13:01:34;43.60;21.40
423;DHT22;198;48.752;9.180;2022-08-21T13:04:16;43.20;22.60
423;DHT22;198;48.752;9.180;2022-08-21T13:06:46;42.20;22.70
423;DHT22;198;48.752;9.180;2022-08-21T13:09:15;40.90;22.80
423;DHT22;198;48.752;9.180;2022-08-21T13:11:44;39.50;24.30
423;DHT22;198;48.752;9.180;2022-08-21T13:14:36;38.20;24.70
423;DHT22;198;48.752;9.180;2022-08-21T13:17:04;36.80;26.40
423;DHT22;198;48.752;9.180;2022-08-21T13:19:31;35.80;26.60
423;DHT22;198;48.752;9.180;2022-08-21T13:21:57;35.20;27.00
423;DHT22;198;48.752;9.180;2022-08-21T13:24:29;34.70;27.60
423;DHT22;198;48.752;9.180;2022-08-21T13:26:55;34.20;27.90
423;DHT22;198;48.752;9.180;2022-08-21T13:29:26;34.00;28.00
423;DHT22;198;48.752;9.180;2022-08-21T13:31:58;33.60;28.50
423;DHT22;198;48.752;9.180;2022-08-21T13:34:26;33.70;28.60
423;DHT22;198;48.752;9.180;2022-08-21T13:36:55;35.70;27.80
423;DHT22;198;48.752;9.180;2022-08-21T13:39:22;37.20;25.90
423;DHT22;198;48.752;9.180;2022-08-21T13:41:51;36.80;26.10
423;DHT22;198;48.752;9.180;2022-08-21T13:46:52;37.20;27.10
423;DHT22;198;48.752;9.180;2022-08-21T13:49:23;39.00;25.80
423;DHT22;198;48.752;9.180;2022-08-21T13:51:51;40.70;24.10
423;DHT22;198;48.752;9.180;2022-08-21T13:54:24;42.20;23.70
423;DHT22;198;48.752;9.180;2022-08-21T13:56:51;43.50;22.60
423;DHT22;198;48.752;9.180;2022-08-21T13:59:31;44.00;21.60
423;DHT22;198;48.752;9.180;2022-08-21T14:02:10;45.50;21.30
423;DHT22;198;48.752;9.180;2022-08-21T14:04:47;46.20;20.60
423;DHT22;198;48.752;9.180;2022-08-21T14:07:18;46.90;20.60
423;DHT22;198;48.752;9.180;2022-08-21T14:09:45;46.90;20.00
423;DHT22;198;48.752;9.180;2022-08-21T14:12:15;45.60;20.90
423;DHT22;198;48.752;9.180;2022-08-21T14:14:41;44.10;22.10
423;DHT22;198;48.752;9.180;2022-08-21T14:17:12;43.60;21.70
423;DHT22;198;48.752;9.180;2022-08-21T14:19:41;43.40;21.90
423;DHT22;198;48.752;9.180;2022-08-21T14:22:46;42.70;21.80
423;DHT22;198;48.752;9.180;2022-08-21T14:30:32;39.20;24.20
423;DHT22;198;48.752;9.180;2022-08-21T14:32:59;38.30;24.80
423;DHT22;198;48.752;9.180;2022-08-21T14:35:24;37.30;25.70
423;DHT22;198;48.752;9.180;2022-08-21T14:37:51;37.30;25.70
423;DHT22;198;48.752;9.180;2022-08-21T14:40:17;37.70;25.00
423;DHT22;198;48.752;9.180;2022-08-21T14:42:44;37.90;25.50
423;DHT22;198;48.752;9.180;2022-08-21T14:45:20;38.90;24.80
423;DHT22;198;48.752;9.180;2022-08-21T14:47:48;40.40;24.30
423;DHT22;198;48.752;9.180;2022-08-21T14:50:14;41.50;22.90
423;DHT22;198;48.752;9.180;2022-08-21T14:52:40;41.60;22.90
423;DHT22;198;48.752;9.180;2022-08-21T14:55:07;40.60;24.10
423;DHT22;198;48.752;9.180;2022-08-21T14:57:36;40.00;24.60
423;DHT22;198;48.752;9.180;2022-08-21T15:00:04;40.50;24.30
423;DHT22;198;48.752;9.180;2022-08-21T15:02:29;41.70;23.30
423;DHT22;198;48.752;9.180;2022-08-21T15:04:55;42.70;22.90
423;DHT22;198;48.752;9.180;2022-08-21T15:07:20;42.30;22.80
423;DHT22;198;48.752;9.180;2022-08-21T15:09:46;41.10;22.70
423;DHT22;198;48.752;9.180;2022-08-21T15:12:13;39.70;23.60
423;DHT22;198;48.752;9.180;2022-08-21T15:14:40;38.80;24.40
423;DHT22;198;48.752;9.180;2022-08-21T15:17:07;39.10;24.20
423;DHT22;198;48.752;9.180;2022-08-21T15:19:33;39.40;23.70
423;DHT22;198;48.752;9.180;2022-08-21T15:21:59;40.50;23.90
423;DHT22;198;48.752;9.180;2022-08-21T15:24:25;41.10;23.30
423;DHT22;198;48.752;9.180;2022-08-21T15:26:51;41.80;23.10
423;DHT22;198;48.752;9.180;2022-08-21T15:29:17;42.50;22.90
423;DHT22;198;48.752;9.180;2022-08-21T15:32:19;42.60;22.40
423;DHT22;198;48.752;9.180;2022-08-21T15:34:47;42.40;22.60
423;DHT22;198;48.752;9.180;2022-08-21T15:37:13;42.70;22.50
423;DHT22;198;48.752;9.180;2022-08-21T15:39:38;43.20;22.60
423;DHT22;198;48.752;9.180;2022-08-21T15:42:04;43.70;21.80
423;DHT22;198;48.752;9.180;2022-08-21T15:44:30;43.80;21.00
423;DHT22;198;48.752;9.180;2022-08-21T15:46:56;43.60;20.90
423;DHT22;198;48.752;9.180;2022-08-21T15:49:22;42.50;21.10
423;DHT22;198;48.752;9.180;2022-08-21T15:51:48;40.90;21.80
423;DHT22;198;48.752;9.180;2022-08-21T15:54:14;39.60;22.60
423;DHT22;198;48.752;9.180;2022-08-21T15:56:42;38.90;24.30
423;DHT22;198;48.752;9.180;2022-08-21T15:59:17;37.50;24.90
423;DHT22;198;48.752;9.180;2022-08-21T16:01:44;36.80;25.90
423;DHT22;198;48.752;9.180;2022-08-21T16:04:10;37.10;25.20
423;DHT22;198;48.752;9.180;2022-08-21T16:06:37;37.80;26.70
423;DHT22;198;48.752;9.180;2022-08-21T16:09:03;38.30;25.50
423;DHT22;198;48.752;9.180;2022-08-21T16:11:29;38.40;24.40
423;DHT22;198;48.752;9.180;2022-08-21T16:13:54;37.70;24.40
423;DHT22;198;48.752;9.180;2022-08-21T16:16:22;36.80;25.70
423;DHT22;198;48.752;9.180;2022-08-21T16:18:49;35.80;26.60
423;DHT22;198;48.752;9.180;2022-08-21T16:21:15;34.90;27.20
423;DHT22;198;48.752;9.180;2022-08-21T16:23:41;34.10;27.40
423;DHT22;198;48.752;9.180;2022-08-21T16:26:08;33.30;28.20
423;DHT22;198;48.752;9.180;2022-08-21T16:28:38;32.60;29.80
423;DHT22;198;48.752;9.180;2022-08-21T16:31:04;32.50;30.30
423;DHT22;198;48.752;9.180;2022-08-21T16:33:42;33.10;29.00
423;DHT22;198;48.752;9.180;2022-08-21T16:36:10;33.60;29.30
423;DHT22;198;48.752;9.180;2022-08-21T16:38:36;34.50;27.30
423;DHT22;198;48.752;9.180;2022-08-21T16:41:04;35.30;26.80
423;DHT22;198;48.752;9.180;2022-08-21T16:43:29;35.90;26.90
423;DHT22;198;48.752;9.180;2022-08-21T16:45:57;36.50;26.20
423;DHT22;198;48.752;9.180;2022-08-21T16:48:23;37.00;25.40
423;DHT22;198;48.752;9.180;2022-08-21T16:50:49;37.30;25.40
423;DHT22;198;48.752;9.180;2022-08-21T16:53:15;37.60;25.70
423;DHT22;198;48.752;9.180;2022-08-21T16:55:41;37.30;26.20
423;DHT22;198;48.752;9.180;2022-08-21T16:58:10;37.00;26.00
423;DHT22;198;48.752;9.180;2022-08-21T17:00:37;36.60;26.20
423;DHT22;198;48.752;9.180;2022-08-21T17:03:03;36.10;26.40
423;DHT22;198;48.752;9.180;2022-08-21T17:05:28;35.80;26.50
423;DHT22;198;48.752;9.180;2022-08-21T17:07:54;35.80;26.60
423;DHT22;198;48.752;9.180;2022-08-21T17:10:19;35.90;26.50
423;DHT22;198;48.752;9.180;2022-08-21T17:12:49;35.90;26.90
423;DHT22;198;48.752;9.180;2022-08-21T17:15:23;35.80;26.20
423;DHT22;198;48.752;9.180;2022-08-21T17:17:50;35.50;26.60
423;DHT22;198;48.752;9.180;2022-08-21T17:20:16;35.10;27.20
423;DHT22;198;48.752;9.180;2022-08-21T17:22:41;34.20;27.00
423;DHT22;198;48.752;9.180;2022-08-21T17:25:07;33.40;28.30
423;DHT22;198;48.752;9.180;2022-08-21T17:27:33;32.40;29.40
423;DHT22;198;48.752;9.180;2022-08-21T17:29:59;31.70;29.80
423;DHT22;198;48.752;9.180;2022-08-21T17:32:24;31.00;30.50
423;DHT22;198;48.752;9.180;2022-08-21T17:34:50;30.50;32.40
423;DHT22;198;48.752;9.180;2022-08-21T17:37:16;29.90;31.80
423;DHT22;198;48.752;9.180;2022-08-21T17:39:41;29.40;32.90
423;DHT22;198;48.752;9.180;2022-08-21T17:42:09;28.90;33.70
423;DHT22;198;48.752;9.180;2022-08-21T17:44:43;28.40;34.10
423;DHT22;198;48.752;9.180;2022-08-21T17:47:10;27.90;34.60
423;DHT22;198;48.752;9.180;2022-08-21T17:49:37;27.50;34.80
423;DHT22;198;48.752;9.180;2022-08-21T17:52:04;27.20;36.50
423;DHT22;198;48.752;9.180;2022-08-21T17:54:30;26.90;37.80
423;DHT22;198;48.752;9.180;2022-08-21T17:56:55;26.60;38.70
423;DHT22;198;48.752;9.180;2022-08-21T17:59:22;26.40;39.50
423;DHT22;198;48.752;9.180;2022-08-21T18:01:48;26.10;38.60
423;DHT22;198;48.752;9.180;2022-08-21T18:04:14;25.90;38.80
423;DHT22;198;48.752;9.180;2022-08-21T18:06:41;25.70;39.90
423;DHT22;198;48.752;9.180;2022-08-21T18:09:08;25.40;40.00
423;DHT22;198;48.752;9.180;2022-08-21T18:11:34;25.20;39.80
423;DHT22;198;48.752;9.180;2022-08-21T18:14:02;25.10;40.20
423;DHT22;198;48.752;9.180;2022-08-21T18:16:31;24.90;40.70
423;DHT22;198;48.752;9.180;2022-08-21T18:18:59;24.80;42.10